sensor_id;sensor_type;location;lat;lon;timestamp;pressure;altitude;pressure_sealevel;temperature;humidity
4617;BME280;2321;42.704;23.384;2022-11-15T00:02:11;96054.53;;;3.51;100.00
4617;BME280;2321;42.704;23.384;2022-11-15T00:04:38;96052.88;;;3.50;100.00
4617;BME280;2321;42.704;23.384;2022-11-15T00:07:05;96046.50;;;3.52;100.00
4617;BME280;2321;42.704;23.384;2022-11-15T00:09:33;96050.50;;;3.46;100.00
4617;BME280;2321;42.704;23.384;2022-11-15T00:12:00;96051.47;;;3.45;100.00
4617;BME280;2321;42.704;23.384;2022-11-15T00:14:27;96053.69;;;3.50;100.00
4617;BME280;2321;42.704;23.384;2022-11-15T00:16:53;96050.69;;;3.55;100.00
4617;BME280;2321;42.704;23.384;2022-11-15T00:19:20;96055.94;;;3.55;100.00
4617;BME280;2321;42.704;23.384;2022-11-15T00:21:47;96049.53;;;3.47;100.00
4617;BME280;2321;42.704;23.384;2022-11-15T00:24:14;96050.03;;;3.41;100.00
4617;BME280;2321;42.704;23.384;2022-11-15T00:26:42;96046.19;;;3.45;100.00
4617;BME280;2321;42.704;23.384;2022-11-15T00:29:09;96038.94;;;3.37;100.00
4617;BME280;2321;42.704;23.384;2022-11-15T00:31:36;96038.50;;;3.32;100.00
4617;BME280;2321;42.704;23.384;2022-11-15T00:34:03;96039.94;;;3.15;100.00
4617;BME280;2321;42.704;23.384;2022-11-15T00:36:32;96038.47;;;3.01;100.00
4617;BME280;2321;42.704;23.384;2022-11-15T00:38:59;96030.53;;;2.91;100.00
4617;BME280;2321;42.704;23.384;2022-11-15T00:41:26;96037.13;;;2.85;100.00
4617;BME280;2321;42.704;23.384;2022-11-15T00:43:55;96027.69;;;2.82;100.00
4617;BME280;2321;42.704;23.384;2022-11-15T00:46:22;96028.41;;;2.85;100.00
4617;BME280;2321;42.704;23.384;2022-11-15T00:48:49;96038.50;;;2.68;100.00
4617;BME280;2321;42.704;23.384;2022-11-15T00:51:15;96034.09;;;2.68;100.00
4617;BME280;2321;42.704;23.384;2022-11-15T00:53:42;96028.25;;;2.65;100.00
4617;BME280;2321;42.704;23.384;2022-11-15T00:56:09;96029.47;;;2.60;100.00
4617;BME280;2321;42.704;23.384;2022-11-15T00:58:36;96023.50;;;2.58;100.00
4617;BME280;2321;42.704;23.384;2022-11-15T01:01:09;96026.25;;;2.57;100.00
4617;BME280;2321;42.704;23.384;2022-11-15T01:03:38;96011.59;;;2.43;100.00
4617;BME280;2321;42.704;23.384;2022-11-15T01:06:06;96014.13;;;2.44;100.00
4617;BME280;2321;42.704;23.384;2022-11-15T01:08:33;96015.66;;;2.47;100.00
4617;BME280;2321;42.704;23.384;2022-11-15T01:11:01;96000.53;;;2.39;100.00
4617;BME280;2321;42.704;23.384;2022-11-15T01:13:30;96018.28;;;2.47;100.00
4617;BME280;2321;42.704;23.384;2022-11-15T01:15:57;96022.88;;;2.33;100.00
4617;BME280;2321;42.704;23.384;2022-11-15T01:18:26;96019.19;;;2.36;100.00
4617;BME280;2321;42.704;23.384;2022-11-15T01:20:53;96017.50;;;2.35;100.00
4617;BME280;2321;42.704;23.384;2022-11-15T01:23:20;96017.53;;;2.23;100.00
4617;BME280;2321;42.704;23.384;2022-11-15T01:25:46;96018.13;;;2.27;100.00
4617;BME280;2321;42.704;23.384;2022-11-15T01:28:13;96019.38;;;2.11;100.00
4617;BME280;2321;42.704;23.384;2022-11-15T01:30:40;96017.44;;;2.13;100.00
4617;BME280;2321;42.704;23.384;2022-11-15T01:33:07;96017.66;;;2.22;100.00
4617;BME280;2321;42.704;23.384;2022-11-15T01:35:39;96018.44;;;2.34;100.00
4617;BME280;2321;42.704;23.384;2022-11-15T01:38:07;96014.97;;;2.33;100.00
4617;BME280;2321;42.704;23.384;2022-11-15T01:40:34;96016.66;;;2.34;100.00
4617;BME280;2321;42.704;23.384;2022-11-15T01:43:19;96020.97;;;2.35;100.00
4617;BME280;2321;42.704;23.384;2022-11-15T01:45:49;96016.91;;;2.31;100.00
4617;BME280;2321;42.704;23.384;2022-11-15T01:48:18;96016.41;;;2.37;100.00
4617;BME280;2321;42.704;23.384;2022-11-15T01:50:46;96015.53;;;2.48;100.00
4617;BME280;2321;42.704;23.384;2022-11-15T01:53:14;96010.50;;;2.57;100.00
4617;BME280;2321;42.704;23.384;2022-11-15T01:55:41;96011.00;;;2.50;100.00
4617;BME280;2321;42.704;23.384;2022-11-15T01:58:08;96016.84;;;2.54;100.00
4617;BME280;2321;42.704;23.384;2022-11-15T02:00:35;96004.97;;;2.60;100.00
4617;BME280;2321;42.704;23.384;2022-11-15T02:03:02;96000.81;;;2.57;100.00
4617;BME280;2321;42.704;23.384;2022-11-15T02:05:30;96002.22;;;2.61;100.00
4617;BME280;2321;42.704;23.384;2022-11-15T02:07:59;96003.31;;;2.59;100.00
4617;BME280;2321;42.704;23.384;2022-11-15T02:10:27;96002.34;;;2.60;100.00
4617;BME280;2321;42.704;23.384;2022-11-15T02:12:55;96012.97;;;2.58;100.00
4617;BME280;2321;42.704;23.384;2022-11-15T02:15:26;96009.72;;;2.66;100.00
4617;BME280;2321;42.704;23.384;2022-11-15T02:18:10;96002.22;;;2.61;100.00
4617;BME280;2321;42.704;23.384;2022-11-15T02:21:00;96006.25;;;2.44;100.00
4617;BME280;2321;42.704;23.384;2022-11-15T02:27:20;96010.16;;;2.17;100.00
4617;BME280;2321;42.704;23.384;2022-11-15T02:33:05;96007.16;;;2.22;100.00
4617;BME280;2321;42.704;23.384;2022-11-15T02:35:49;96005.84;;;2.16;100.00
4617;BME280;2321;42.704;23.384;2022-11-15T02:38:25;96004.16;;;2.26;100.00
4617;BME280;2321;42.704;23.384;2022-11-15T02:40:58;96004.72;;;2.30;100.00
4617;BME280;2321;42.704;23.384;2022-11-15T02:43:29;95994.69;;;2.35;100.00
4617;BME280;2321;42.704;23.384;2022-11-15T02:46:20;95995.38;;;2.37;100.00
4617;BME280;2321;42.704;23.384;2022-11-15T02:49:11;95995.63;;;2.34;100.00
4617;BME280;2321;42.704;23.384;2022-11-15T02:51:39;96005.66;;;2.41;100.00
4617;BME280;2321;42.704;23.384;2022-11-15T02:54:07;96002.66;;;2.45;100.00
4617;BME280;2321;42.704;23.384;2022-11-15T02:56:37;96009.06;;;2.53;100.00
4617;BME280;2321;42.704;23.384;2022-11-15T02:59:22;95999.00;;;2.58;100.00
4617;BME280;2321;42.704;23.384;2022-11-15T03:02:00;96004.31;;;2.46;100.00
4617;BME280;2321;42.704;23.384;2022-11-15T03:04:38;96006.44;;;2.53;100.00
4617;BME280;2321;42.704;23.384;2022-11-15T03:07:14;96004.41;;;2.56;100.00
4617;BME280;2321;42.704;23.384;2022-11-15T03:09:50;96006.94;;;2.46;100.00
4617;BME280;2321;42.704;23.384;2022-11-15T03:12:24;96005.06;;;2.37;100.00
4617;BME280;2321;42.704;23.384;2022-11-15T03:14:57;95999.75;;;2.27;100.00
4617;BME280;2321;42.704;23.384;2022-11-15T03:17:27;96006.66;;;2.28;100.00
4617;BME280;2321;42.704;23.384;2022-11-15T03:19:59;95992.47;;;2.19;100.00
4617;BME280;2321;42.704;23.384;2022-11-15T03:22:29;96000.00;;;2.24;100.00
4617;BME280;2321;42.704;23.384;2022-11-15T03:25:03;95997.03;;;2.17;100.00
4617;BME280;2321;42.704;23.384;2022-11-15T03:27:34;95999.41;;;2.20;100.00
4617;BME280;2321;42.704;23.384;2022-11-15T03:30:05;95993.56;;;2.16;100.00
4617;BME280;2321;42.704;23.384;2022-11-15T03:32:35;95991.63;;;2.18;100.00
4617;BME280;2321;42.704;23.384;2022-11-15T03:35:08;95992.22;;;2.22;100.00
4617;BME280;2321;42.704;23.384;2022-11-15T03:37:40;95988.88;;;2.20;100.00
4617;BME280;2321;42.704;23.384;2022-11-15T03:40:08;95987.31;;;2.29;100.00
4617;BME280;2321;42.704;23.384;2022-11-15T03:42:39;95981.72;;;2.22;100.00
4617;BME280;2321;42.704;23.384;2022-11-15T03:45:13;95975.94;;;2.28;100.00
4617;BME280;2321;42.704;23.384;2022-11-15T03:47:45;95973.72;;;2.24;100.00
4617;BME280;2321;42.704;23.384;2022-11-15T03:50:17;95981.13;;;2.18;100.00
4617;BME280;2321;42.704;23.384;2022-11-15T03:52:46;95981.38;;;2.15;100.00
4617;BME280;2321;42.704;23.384;2022-11-15T03:55:17;95977.09;;;2.14;100.00
4617;BME280;2321;42.704;23.384;2022-11-15T03:57:44;95969.78;;;2.18;100.00
4617;BME280;2321;42.704;23.384;2022-11-15T04:00:12;95978.63;;;2.17;100.00
4617;BME280;2321;42.704;23.384;2022-11-15T04:02:38;95974.06;;;2.19;100.00
4617;BME280;2321;42.704;23.384;2022-11-15T04:05:06;95969.66;;;2.20;100.00
4617;BME280;2321;42.704;23.384;2022-11-15T04:07:34;95967.28;;;2.16;100.00
4617;BME280;2321;42.704;23.384;2022-11-15T04:10:02;95967.63;;;2.12;100.00
4617;BME280;2321;42.704;23.384;2022-11-15T04:12:29;95969.56;;;2.10;100.00
4617;BME280;2321;42.704;23.384;2022-11-15T04:15:00;95945.75;;;1.90;100.00
4617;BME280;2321;42.704;23.384;2022-11-15T04:17:38;95967.22;;;1.95;100.00
4617;BME280;2321;42.704;23.384;2022-11-15T04:20:07;95970.44;;;1.99;100.00
4617;BME280;2321;42.704;23.384;2022-11-15T04:22:54;95954.69;;;1.99;100.00
4617;BME280;2321;42.704;23.384;2022-11-15T04:25:39;95956.31;;;2.11;100.00
4617;BME280;2321;42.704;23.384;2022-11-15T04:28:06;95952.59;;;2.14;100.00
4617;BME280;2321;42.704;23.384;2022-11-15T04:30:33;95951.50;;;2.16;100.00
4617;BME280;2321;42.704;23.384;2022-11-15T04:33:00;95951.88;;;2.12;100.00
4617;BME280;2321;42.704;23.384;2022-11-15T04:35:27;95956.78;;;2.16;100.00
4617;BME280;2321;42.704;23.384;2022-11-15T04:37:56;95967.72;;;2.22;100.00
4617;BME280;2321;42.704;23.384;2022-11-15T04:40:23;95957.34;;;2.20;100.00
4617;BME280;2321;42.704;23.384;2022-11-15T04:42:50;95961.78;;;2.20;100.00
4617;BME280;2321;42.704;23.384;2022-11-15T04:45:16;95951.72;;;2.25;100.00
4617;BME280;2321;42.704;23.384;2022-11-15T04:47:44;95954.94;;;2.28;100.00
4617;BME280;2321;42.704;23.384;2022-11-15T04:50:12;95951.66;;;2.36;100.00
4617;BME280;2321;42.704;23.384;2022-11-15T04:52:40;95962.00;;;2.49;100.00
4617;BME280;2321;42.704;23.384;2022-11-15T04:55:09;95954.50;;;2.45;100.00
4617;BME280;2321;42.704;23.384;2022-11-15T04:57:37;95955.66;;;2.52;100.00
4617;BME280;2321;42.704;23.384;2022-11-15T05:00:06;95950.09;;;2.45;100.00
4617;BME280;2321;42.704;23.384;2022-11-15T05:02:34;95956.13;;;2.57;100.00
4617;BME280;2321;42.704;23.384;2022-11-15T05:05:20;95950.13;;;2.77;100.00
4617;BME280;2321;42.704;23.384;2022-11-15T05:07:47;95958.50;;;2.82;100.00
4617;BME280;2321;42.704;23.384;2022-11-15T05:10:16;95967.81;;;2.96;100.00
4617;BME280;2321;42.704;23.384;2022-11-15T05:12:43;95962.94;;;2.91;100.00
4617;BME280;2321;42.704;23.384;2022-11-15T05:15:10;95963.84;;;2.80;100.00
4617;BME280;2321;42.704;23.384;2022-11-15T05:17:37;95966.41;;;2.92;100.00
4617;BME280;2321;42.704;23.384;2022-11-15T05:20:04;95962.13;;;2.91;100.00
4617;BME280;2321;42.704;23.384;2022-11-15T05:22:31;95958.00;;;2.98;100.00
4617;BME280;2321;42.704;23.384;2022-11-15T05:24:58;95953.06;;;3.05;100.00
4617;BME280;2321;42.704;23.384;2022-11-15T05:27:26;95954.84;;;3.04;100.00
4617;BME280;2321;42.704;23.384;2022-11-15T05:29:53;95952.94;;;3.07;100.00
4617;BME280;2321;42.704;23.384;2022-11-15T05:32:20;95956.84;;;3.12;100.00
4617;BME280;2321;42.704;23.384;2022-11-15T05:34:47;95954.22;;;3.12;100.00
4617;BME280;2321;42.704;23.384;2022-11-15T05:37:14;95958.63;;;3.12;100.00
4617;BME280;2321;42.704;23.384;2022-11-15T05:39:41;95952.31;;;3.24;100.00
4617;BME280;2321;42.704;23.384;2022-11-15T05:42:11;95953.59;;;3.30;100.00
4617;BME280;2321;42.704;23.384;2022-11-15T05:44:43;95952.75;;;3.30;100.00
4617;BME280;2321;42.704;23.384;2022-11-15T05:47:14;95957.78;;;3.43;100.00
4617;BME280;2321;42.704;23.384;2022-11-15T05:49:44;95965.16;;;3.49;100.00
4617;BME280;2321;42.704;23.384;2022-11-15T05:52:14;95959.63;;;3.52;100.00
4617;BME280;2321;42.704;23.384;2022-11-15T05:54:43;95958.94;;;3.60;100.00
4617;BME280;2321;42.704;23.384;2022-11-15T05:57:10;95965.63;;;3.64;100.00
4617;BME280;2321;42.704;23.384;2022-11-15T05:59:39;95959.25;;;3.67;100.00
4617;BME280;2321;42.704;23.384;2022-11-15T06:02:06;95958.97;;;3.70;100.00
4617;BME280;2321;42.704;23.384;2022-11-15T06:04:33;95964.53;;;3.77;100.00
4617;BME280;2321;42.704;23.384;2022-11-15T06:07:01;95949.53;;;3.67;100.00
4617;BME280;2321;42.704;23.384;2022-11-15T06:09:28;95964.97;;;3.82;100.00
4617;BME280;2321;42.704;23.384;2022-11-15T06:11:55;95972.75;;;3.94;100.00
4617;BME280;2321;42.704;23.384;2022-11-15T06:14:22;95965.53;;;3.96;100.00
4617;BME280;2321;42.704;23.384;2022-11-15T06:16:50;95962.34;;;3.92;100.00
4617;BME280;2321;42.704;23.384;2022-11-15T06:19:17;95929.72;;;3.73;100.00
4617;BME280;2321;42.704;23.384;2022-11-15T06:21:44;95964.97;;;4.02;100.00
4617;BME280;2321;42.704;23.384;2022-11-15T06:24:11;95966.97;;;4.20;100.00
4617;BME280;2321;42.704;23.384;2022-11-15T06:26:38;95968.75;;;4.19;100.00
4617;BME280;2321;42.704;23.384;2022-11-15T06:29:05;95965.69;;;4.24;100.00
4617;BME280;2321;42.704;23.384;2022-11-15T06:31:33;95971.38;;;4.39;100.00
4617;BME280;2321;42.704;23.384;2022-11-15T06:34:01;95970.16;;;4.33;100.00
4617;BME280;2321;42.704;23.384;2022-11-15T06:36:28;95966.38;;;4.36;100.00
4617;BME280;2321;42.704;23.384;2022-11-15T06:38:56;95965.16;;;4.40;100.00
4617;BME280;2321;42.704;23.384;2022-11-15T06:41:23;95963.75;;;4.56;100.00
4617;BME280;2321;42.704;23.384;2022-11-15T06:43:50;95965.28;;;4.58;100.00
4617;BME280;2321;42.704;23.384;2022-11-15T06:46:17;95961.41;;;4.63;100.00
4617;BME280;2321;42.704;23.384;2022-11-15T06:48:44;95952.50;;;4.74;100.00
4617;BME280;2321;42.704;23.384;2022-11-15T06:51:12;95959.56;;;4.83;100.00
4617;BME280;2321;42.704;23.384;2022-11-15T06:53:39;95967.75;;;4.90;100.00
4617;BME280;2321;42.704;23.384;2022-11-15T06:56:06;95963.44;;;4.89;100.00
4617;BME280;2321;42.704;23.384;2022-11-15T06:58:34;95965.78;;;4.92;100.00
4617;BME280;2321;42.704;23.384;2022-11-15T07:01:03;95960.50;;;4.92;100.00
4617;BME280;2321;42.704;23.384;2022-11-15T07:03:31;95955.06;;;5.04;100.00
4617;BME280;2321;42.704;23.384;2022-11-15T07:05:58;95964.09;;;5.01;100.00
4617;BME280;2321;42.704;23.384;2022-11-15T07:08:28;95956.72;;;5.15;100.00
4617;BME280;2321;42.704;23.384;2022-11-15T07:10:58;95954.28;;;5.21;100.00
4617;BME280;2321;42.704;23.384;2022-11-15T07:13:26;95944.84;;;5.29;100.00
4617;BME280;2321;42.704;23.384;2022-11-15T07:15:53;95949.47;;;5.17;100.00
4617;BME280;2321;42.704;23.384;2022-11-15T07:18:20;95941.81;;;5.23;100.00
4617;BME280;2321;42.704;23.384;2022-11-15T07:20:47;95945.50;;;5.31;100.00
4617;BME280;2321;42.704;23.384;2022-11-15T07:23:14;95944.63;;;5.40;100.00
4617;BME280;2321;42.704;23.384;2022-11-15T07:25:42;95941.47;;;5.37;100.00
4617;BME280;2321;42.704;23.384;2022-11-15T07:28:09;95950.84;;;5.49;100.00
4617;BME280;2321;42.704;23.384;2022-11-15T07:30:36;95940.75;;;5.44;100.00
4617;BME280;2321;42.704;23.384;2022-11-15T07:33:03;95951.25;;;5.54;100.00
4617;BME280;2321;42.704;23.384;2022-11-15T07:35:30;95952.09;;;5.55;100.00
4617;BME280;2321;42.704;23.384;2022-11-15T07:37:58;95946.66;;;5.56;100.00
4617;BME280;2321;42.704;23.384;2022-11-15T07:40:26;95942.25;;;5.47;100.00
4617;BME280;2321;42.704;23.384;2022-11-15T07:42:58;95948.91;;;5.51;100.00
4617;BME280;2321;42.704;23.384;2022-11-15T07:45:25;95942.06;;;5.59;100.00
4617;BME280;2321;42.704;23.384;2022-11-15T07:47:53;95953.16;;;5.62;100.00
4617;BME280;2321;42.704;23.384;2022-11-15T07:50:21;95947.41;;;5.49;100.00
4617;BME280;2321;42.704;23.384;2022-11-15T07:52:53;95949.22;;;5.48;100.00
4617;BME280;2321;42.704;23.384;2022-11-15T07:55:20;95949.31;;;5.56;100.00
4617;BME280;2321;42.704;23.384;2022-11-15T07:57:47;95952.41;;;5.52;100.00
4617;BME280;2321;42.704;23.384;2022-11-15T08:00:16;95942.50;;;5.54;100.00
4617;BME280;2321;42.704;23.384;2022-11-15T08:02:43;95945.22;;;5.62;100.00
4617;BME280;2321;42.704;23.384;2022-11-15T08:05:11;95936.34;;;5.63;100.00
4617;BME280;2321;42.704;23.384;2022-11-15T08:07:38;95950.13;;;5.57;100.00
4617;BME280;2321;42.704;23.384;2022-11-15T08:10:06;95942.59;;;5.62;100.00
4617;BME280;2321;42.704;23.384;2022-11-15T08:12:33;95947.00;;;5.72;100.00
4617;BME280;2321;42.704;23.384;2022-11-15T08:15:00;95943.09;;;5.76;100.00
4617;BME280;2321;42.704;23.384;2022-11-15T08:17:29;95939.22;;;5.70;100.00
4617;BME280;2321;42.704;23.384;2022-11-15T08:19:58;95931.81;;;5.74;100.00
4617;BME280;2321;42.704;23.384;2022-11-15T08:22:25;95933.66;;;5.73;100.00
4617;BME280;2321;42.704;23.384;2022-11-15T08:24:52;95934.16;;;5.77;100.00
4617;BME280;2321;42.704;23.384;2022-11-15T08:27:19;95929.69;;;5.59;100.00
4617;BME280;2321;42.704;23.384;2022-11-15T08:29:48;95909.34;;;5.41;100.00
4617;BME280;2321;42.704;23.384;2022-11-15T08:32:15;95926.75;;;5.62;100.00
4617;BME280;2321;42.704;23.384;2022-11-15T08:34:44;95933.41;;;5.66;100.00
4617;BME280;2321;42.704;23.384;2022-11-15T08:37:11;95941.31;;;5.66;100.00
4617;BME280;2321;42.704;23.384;2022-11-15T08:39:38;95935.88;;;5.68;100.00
4617;BME280;2321;42.704;23.384;2022-11-15T08:42:05;95919.44;;;5.74;100.00
4617;BME280;2321;42.704;23.384;2022-11-15T08:44:32;95926.94;;;5.79;100.00
4617;BME280;2321;42.704;23.384;2022-11-15T08:46:59;95922.91;;;5.75;100.00
4617;BME280;2321;42.704;23.384;2022-11-15T08:49:25;95920.56;;;5.72;100.00
4617;BME280;2321;42.704;23.384;2022-11-15T08:51:54;95916.19;;;5.81;100.00
4617;BME280;2321;42.704;23.384;2022-11-15T08:54:21;95915.66;;;5.77;100.00
4617;BME280;2321;42.704;23.384;2022-11-15T08:56:47;95920.34;;;5.83;100.00
4617;BME280;2321;42.704;23.384;2022-11-15T08:59:14;95910.06;;;5.80;100.00
4617;BME280;2321;42.704;23.384;2022-11-15T09:01:41;95908.81;;;5.84;100.00
4617;BME280;2321;42.704;23.384;2022-11-15T09:04:08;95905.72;;;5.89;100.00
4617;BME280;2321;42.704;23.384;2022-11-15T09:06:35;95900.34;;;5.81;100.00
4617;BME280;2321;42.704;23.384;2022-11-15T09:09:03;95891.88;;;5.77;100.00
4617;BME280;2321;42.704;23.384;2022-11-15T09:11:30;95896.88;;;5.80;100.00
4617;BME280;2321;42.704;23.384;2022-11-15T09:13:57;95896.38;;;5.95;100.00
4617;BME280;2321;42.704;23.384;2022-11-15T09:16:24;95887.06;;;5.91;100.00
4617;BME280;2321;42.704;23.384;2022-11-15T09:18:52;95885.41;;;5.89;100.00
4617;BME280;2321;42.704;23.384;2022-11-15T09:21:19;95888.28;;;5.96;100.00
4617;BME280;2321;42.704;23.384;2022-11-15T09:23:46;95885.09;;;5.93;100.00
4617;BME280;2321;42.704;23.384;2022-11-15T09:26:14;95878.84;;;5.94;100.00
4617;BME280;2321;42.704;23.384;2022-11-15T09:28:41;95874.94;;;5.98;100.00
4617;BME280;2321;42.704;23.384;2022-11-15T09:31:09;95869.84;;;6.05;100.00
4617;BME280;2321;42.704;23.384;2022-11-15T09:33:36;95869.00;;;6.04;100.00
4617;BME280;2321;42.704;23.384;2022-11-15T09:36:05;95868.34;;;6.02;100.00
4617;BME280;2321;42.704;23.384;2022-11-15T09:38:33;95858.38;;;5.96;100.00
4617;BME280;2321;42.704;23.384;2022-11-15T09:41:25;95861.25;;;6.03;100.00
4617;BME280;2321;42.704;23.384;2022-11-15T09:44:07;95859.69;;;6.10;100.00
4617;BME280;2321;42.704;23.384;2022-11-15T09:46:47;95856.88;;;6.12;100.00
4617;BME280;2321;42.704;23.384;2022-11-15T09:49:18;95850.97;;;6.18;100.00
4617;BME280;2321;42.704;23.384;2022-11-15T09:51:47;95850.63;;;6.13;100.00
4617;BME280;2321;42.704;23.384;2022-11-15T09:54:23;95842.88;;;6.01;100.00
4617;BME280;2321;42.704;23.384;2022-11-15T09:56:56;95837.59;;;6.01;100.00
4617;BME280;2321;42.704;23.384;2022-11-15T09:59:35;95835.47;;;6.05;100.00
4617;BME280;2321;42.704;23.384;2022-11-15T10:02:19;95833.44;;;6.17;100.00
4617;BME280;2321;42.704;23.384;2022-11-15T10:04:50;95832.00;;;6.23;100.00
4617;BME280;2321;42.704;23.384;2022-11-15T10:07:21;95821.94;;;6.26;100.00
4617;BME280;2321;42.704;23.384;2022-11-15T10:09:54;95820.81;;;6.29;100.00
4617;BME280;2321;42.704;23.384;2022-11-15T10:12:25;95820.72;;;6.39;100.00
4617;BME280;2321;42.704;23.384;2022-11-15T10:14:58;95807.72;;;6.46;100.00
4617;BME280;2321;42.704;23.384;2022-11-15T10:18:01;95811.50;;;6.43;100.00
4617;BME280;2321;42.704;23.384;2022-11-15T10:20:37;95810.50;;;6.44;100.00
4617;BME280;2321;42.704;23.384;2022-11-15T10:23:06;95810.03;;;6.49;100.00
4617;BME280;2321;42.704;23.384;2022-11-15T10:25:37;95807.28;;;6.59;100.00
4617;BME280;2321;42.704;23.384;2022-11-15T10:28:13;95807.16;;;6.69;100.00
4617;BME280;2321;42.704;23.384;2022-11-15T10:30:42;95803.56;;;6.78;100.00
4617;BME280;2321;42.704;23.384;2022-11-15T10:33:22;95799.00;;;6.89;100.00
4617;BME280;2321;42.704;23.384;2022-11-15T10:36:14;95790.56;;;6.93;100.00
4617;BME280;2321;42.704;23.384;2022-11-15T10:39:02;95785.28;;;6.93;100.00
4617;BME280;2321;42.704;23.384;2022-11-15T10:41:34;95781.00;;;7.01;100.00
4617;BME280;2321;42.704;23.384;2022-11-15T10:44:19;95778.84;;;6.96;100.00
4617;BME280;2321;42.704;23.384;2022-11-15T10:46:48;95776.66;;;6.91;100.00
4617;BME280;2321;42.704;23.384;2022-11-15T10:49:17;95771.75;;;7.05;100.00
4617;BME280;2321;42.704;23.384;2022-11-15T10:51:47;95758.16;;;7.00;100.00
4617;BME280;2321;42.704;23.384;2022-11-15T10:54:20;95763.44;;;7.00;100.00
4617;BME280;2321;42.704;23.384;2022-11-15T10:56:50;95761.84;;;7.07;100.00
4617;BME280;2321;42.704;23.384;2022-11-15T10:59:24;95755.72;;;7.15;100.00
4617;BME280;2321;42.704;23.384;2022-11-15T11:01:53;95754.28;;;7.21;100.00
4617;BME280;2321;42.704;23.384;2022-11-15T11:04:19;95744.19;;;7.33;100.00
4617;BME280;2321;42.704;23.384;2022-11-15T11:06:47;95730.28;;;7.39;100.00
4617;BME280;2321;42.704;23.384;2022-11-15T11:09:30;95722.34;;;7.39;100.00
4617;BME280;2321;42.704;23.384;2022-11-15T11:11:57;95730.44;;;7.46;100.00
4617;BME280;2321;42.704;23.384;2022-11-15T11:14:28;95726.50;;;7.50;100.00
4617;BME280;2321;42.704;23.384;2022-11-15T11:17:02;95726.50;;;7.50;100.00
4617;BME280;2321;42.704;23.384;2022-11-15T11:19:51;95723.31;;;7.55;100.00
4617;BME280;2321;42.704;23.384;2022-11-15T11:22:23;95701.31;;;7.54;100.00
4617;BME280;2321;42.704;23.384;2022-11-15T11:25:11;95712.75;;;7.63;100.00
4617;BME280;2321;42.704;23.384;2022-11-15T11:27:46;95703.78;;;7.64;100.00
4617;BME280;2321;42.704;23.384;2022-11-15T11:30:24;95703.81;;;7.72;100.00
4617;BME280;2321;42.704;23.384;2022-11-15T11:33:12;95692.19;;;7.73;100.00
4617;BME280;2321;42.704;23.384;2022-11-15T11:35:50;95684.59;;;7.79;100.00
4617;BME280;2321;42.704;23.384;2022-11-15T11:38:37;95679.09;;;7.80;100.00
4617;BME280;2321;42.704;23.384;2022-11-15T11:41:13;95672.94;;;7.88;100.00
4617;BME280;2321;42.704;23.384;2022-11-15T11:43:51;95666.50;;;7.91;100.00
4617;BME280;2321;42.704;23.384;2022-11-15T11:46:38;95659.84;;;7.95;100.00
4617;BME280;2321;42.704;23.384;2022-11-15T11:49:13;95652.56;;;7.97;100.00
4617;BME280;2321;42.704;23.384;2022-11-15T11:51:45;95651.41;;;8.00;100.00
4617;BME280;2321;42.704;23.384;2022-11-15T11:54:17;95656.88;;;7.98;100.00
4617;BME280;2321;42.704;23.384;2022-11-15T11:56:48;95650.25;;;8.02;100.00
4617;BME280;2321;42.704;23.384;2022-11-15T11:59:22;95652.84;;;8.11;100.00
4617;BME280;2321;42.704;23.384;2022-11-15T12:01:54;95635.78;;;8.13;100.00
4617;BME280;2321;42.704;23.384;2022-11-15T12:04:26;95637.94;;;8.10;100.00
4617;BME280;2321;42.704;23.384;2022-11-15T12:06:57;95639.63;;;8.02;100.00
4617;BME280;2321;42.704;23.384;2022-11-15T12:09:30;95624.38;;;8.04;100.00
4617;BME280;2321;42.704;23.384;2022-11-15T12:12:04;95608.94;;;8.08;100.00
4617;BME280;2321;42.704;23.384;2022-11-15T12:14:38;95608.91;;;8.25;100.00
4617;BME280;2321;42.704;23.384;2022-11-15T12:17:10;95612.53;;;8.24;100.00
4617;BME280;2321;42.704;23.384;2022-11-15T12:19:37;95608.84;;;8.33;100.00
4617;BME280;2321;42.704;23.384;2022-11-15T12:22:10;95602.31;;;8.44;100.00
4617;BME280;2321;42.704;23.384;2022-11-15T12:24:42;95606.78;;;8.52;100.00
4617;BME280;2321;42.704;23.384;2022-11-15T12:27:17;95606.22;;;8.65;100.00
4617;BME280;2321;42.704;23.384;2022-11-15T12:29:47;95597.06;;;8.76;100.00
4617;BME280;2321;42.704;23.384;2022-11-15T12:32:25;95593.16;;;8.87;100.00
4617;BME280;2321;42.704;23.384;2022-11-15T12:34:53;95590.78;;;8.92;100.00
4617;BME280;2321;42.704;23.384;2022-11-15T12:37:51;95583.50;;;8.95;100.00
4617;BME280;2321;42.704;23.384;2022-11-15T12:40:31;95586.06;;;9.03;100.00
4617;BME280;2321;42.704;23.384;2022-11-15T12:46:02;95575.56;;;9.10;100.00
4617;BME280;2321;42.704;23.384;2022-11-15T12:48:58;95578.97;;;9.19;100.00
4617;BME280;2321;42.704;23.384;2022-11-15T12:57:50;95563.44;;;9.31;100.00
4617;BME280;2321;42.704;23.384;2022-11-15T13:00:42;95560.06;;;9.37;100.00
4617;BME280;2321;42.704;23.384;2022-11-15T13:03:25;95568.41;;;9.34;100.00
4617;BME280;2321;42.704;23.384;2022-11-15T13:06:33;95564.44;;;9.30;100.00
4617;BME280;2321;42.704;23.384;2022-11-15T13:08:58;95557.22;;;9.39;100.00
4617;BME280;2321;42.704;23.384;2022-11-15T13:11:45;95548.13;;;9.33;100.00
4617;BME280;2321;42.704;23.384;2022-11-15T13:20:23;95531.91;;;9.28;100.00
4617;BME280;2321;42.704;23.384;2022-11-15T13:23:01;95524.66;;;9.21;100.00
4617;BME280;2321;42.704;23.384;2022-11-15T13:25:52;95534.00;;;9.17;100.00
4617;BME280;2321;42.704;23.384;2022-11-15T13:28:28;95532.28;;;9.24;100.00
4617;BME280;2321;42.704;23.384;2022-11-15T13:30:59;95534.38;;;9.29;100.00
4617;BME280;2321;42.704;23.384;2022-11-15T13:33:30;95530.38;;;9.33;100.00
4617;BME280;2321;42.704;23.384;2022-11-15T13:36:00;95522.84;;;9.37;100.00
4617;BME280;2321;42.704;23.384;2022-11-15T13:38:32;95514.06;;;9.36;100.00
4617;BME280;2321;42.704;23.384;2022-11-15T13:41:11;95514.31;;;9.42;100.00
4617;BME280;2321;42.704;23.384;2022-11-15T13:43:40;95520.13;;;9.45;100.00
4617;BME280;2321;42.704;23.384;2022-11-15T13:46:12;95526.25;;;9.46;100.00
4617;BME280;2321;42.704;23.384;2022-11-15T13:48:41;95521.56;;;9.48;100.00
4617;BME280;2321;42.704;23.384;2022-11-15T13:51:13;95524.34;;;9.55;100.00
4617;BME280;2321;42.704;23.384;2022-11-15T13:53:47;95506.94;;;9.52;100.00